sensor_id;sensor_type;location;lat;lon;timestamp;pressure;altitude;pressure_sealevel;temperature;humidity
15646;BME280;7922;43.622;1.476;2023-09-19T00:00:41;100437.88;;;17.95;81.92
15646;BME280;7922;43.622;1.476;2023-09-19T00:03:06;100381.13;;;17.62;81.74
15646;BME280;7922;43.622;1.476;2023-09-19T00:05:34;100423.69;;;17.80;82.21
15646;BME280;7922;43.622;1.476;2023-09-19T00:08:01;100407.59;;;17.66;82.24
15646;BME280;7922;43.622;1.476;2023-09-19T00:10:28;100512.47;;;18.30;82.48
15646;BME280;7922;43.622;1.476;2023-09-19T00:12:54;100509.13;;;18.26;82.80
15646;BME280;7922;43.622;1.476;2023-09-19T00:15:19;100512.00;;;18.23;82.93
15646;BME280;7922;43.622;1.476;2023-09-19T00:17:44;100502.84;;;18.13;83.09
15646;BME280;7922;43.622;1.476;2023-09-19T00:20:11;100398.34;;;17.58;83.26
15646;BME280;7922;43.622;1.476;2023-09-19T00:22:39;100490.19;;;18.15;83.29
15646;BME280;7922;43.622;1.476;2023-09-19T00:25:04;100426.16;;;17.69;83.36
15646;BME280;7922;43.622;1.476;2023-09-19T00:27:30;100486.09;;;18.10;83.14
15646;BME280;7922;43.622;1.476;2023-09-19T00:29:55;100494.03;;;18.11;83.57
15646;BME280;7922;43.622;1.476;2023-09-19T00:32:20;100395.75;;;17.56;84.05
15646;BME280;7922;43.622;1.476;2023-09-19T00:34:46;100416.88;;;17.61;84.46
15646;BME280;7922;43.622;1.476;2023-09-19T00:37:11;100467.88;;;17.88;84.16
15646;BME280;7922;43.622;1.476;2023-09-19T00:39:36;100390.44;;;17.42;83.98
15646;BME280;7922;43.622;1.476;2023-09-19T00:42:01;100500.09;;;18.00;84.45
15646;BME280;7922;43.622;1.476;2023-09-19T00:44:27;100407.75;;;17.50;84.64
15646;BME280;7922;43.622;1.476;2023-09-19T00:46:52;100409.00;;;17.45;84.85
15646;BME280;7922;43.622;1.476;2023-09-19T00:49:18;100483.09;;;17.87;84.84
15646;BME280;7922;43.622;1.476;2023-09-19T00:51:43;100475.72;;;17.91;84.73
15646;BME280;7922;43.622;1.476;2023-09-19T00:54:09;100482.69;;;17.93;84.51
15646;BME280;7922;43.622;1.476;2023-09-19T00:56:34;100439.75;;;17.80;84.04
15646;BME280;7922;43.622;1.476;2023-09-19T00:58:59;100394.13;;;17.53;84.15
15646;BME280;7922;43.622;1.476;2023-09-19T01:01:25;100510.06;;;18.25;83.17
15646;BME280;7922;43.622;1.476;2023-09-19T01:03:50;100397.59;;;17.55;83.69
15646;BME280;7922;43.622;1.476;2023-09-19T01:06:16;100386.72;;;17.44;84.47
15646;BME280;7922;43.622;1.476;2023-09-19T01:08:41;100474.88;;;17.90;84.76
15646;BME280;7922;43.622;1.476;2023-09-19T01:11:29;100422.25;;;17.61;84.46
15646;BME280;7922;43.622;1.476;2023-09-19T01:14:22;100506.50;;;18.12;84.29
15646;BME280;7922;43.622;1.476;2023-09-19T01:17:01;100482.94;;;18.03;84.09
15646;BME280;7922;43.622;1.476;2023-09-19T01:23:15;100515.03;;;18.32;83.90
15646;BME280;7922;43.622;1.476;2023-09-19T01:31:09;100506.00;;;18.20;84.93
15646;BME280;7922;43.622;1.476;2023-09-19T01:33:58;100514.22;;;18.17;84.91
15646;BME280;7922;43.622;1.476;2023-09-19T01:36:25;100375.63;;;17.36;84.61
15646;BME280;7922;43.622;1.476;2023-09-19T01:38:51;100489.78;;;17.94;85.12
15646;BME280;7922;43.622;1.476;2023-09-19T01:41:25;100476.88;;;17.87;85.19
15646;BME280;7922;43.622;1.476;2023-09-19T01:43:50;100467.22;;;17.84;85.95
15646;BME280;7922;43.622;1.476;2023-09-19T01:46:21;100409.47;;;17.51;85.45
15646;BME280;7922;43.622;1.476;2023-09-19T01:51:49;100387.41;;;17.33;86.04
15646;BME280;7922;43.622;1.476;2023-09-19T01:54:19;100415.00;;;17.48;86.33
15646;BME280;7922;43.622;1.476;2023-09-19T01:56:51;100468.47;;;17.78;86.54
15646;BME280;7922;43.622;1.476;2023-09-19T01:59:24;100485.66;;;17.89;86.53
15646;BME280;7922;43.622;1.476;2023-09-19T02:01:52;100433.19;;;17.58;86.63
15646;BME280;7922;43.622;1.476;2023-09-19T02:04:18;100495.22;;;17.93;86.94
15646;BME280;7922;43.622;1.476;2023-09-19T02:06:43;100370.88;;;17.13;87.16
15646;BME280;7922;43.622;1.476;2023-09-19T02:09:08;100374.13;;;17.18;87.11
15646;BME280;7922;43.622;1.476;2023-09-19T02:11:34;100478.44;;;17.76;87.19
15646;BME280;7922;43.622;1.476;2023-09-19T02:13:59;100372.50;;;17.15;87.18
15646;BME280;7922;43.622;1.476;2023-09-19T02:16:25;100379.56;;;17.16;87.19
15646;BME280;7922;43.622;1.476;2023-09-19T02:18:50;100426.28;;;17.39;87.19
15646;BME280;7922;43.622;1.476;2023-09-19T02:21:16;100398.47;;;17.27;86.73
15646;BME280;7922;43.622;1.476;2023-09-19T02:23:42;100429.44;;;17.46;86.46
15646;BME280;7922;43.622;1.476;2023-09-19T02:26:07;100469.03;;;17.69;86.25
15646;BME280;7922;43.622;1.476;2023-09-19T02:28:33;100364.56;;;17.14;86.33
15646;BME280;7922;43.622;1.476;2023-09-19T02:30:59;100486.72;;;17.86;86.07
15646;BME280;7922;43.622;1.476;2023-09-19T02:33:24;100418.72;;;17.46;86.00
15646;BME280;7922;43.622;1.476;2023-09-19T02:35:54;100386.19;;;17.25;86.39
15646;BME280;7922;43.622;1.476;2023-09-19T02:38:20;100323.19;;;16.91;86.89
15646;BME280;7922;43.622;1.476;2023-09-19T02:40:45;100358.94;;;17.04;86.80
15646;BME280;7922;43.622;1.476;2023-09-19T02:43:10;100449.34;;;17.56;86.70
15646;BME280;7922;43.622;1.476;2023-09-19T02:45:36;100352.25;;;16.97;87.06
15646;BME280;7922;43.622;1.476;2023-09-19T02:48:01;100422.50;;;17.43;87.30
15646;BME280;7922;43.622;1.476;2023-09-19T02:50:26;100349.41;;;17.00;87.15
15646;BME280;7922;43.622;1.476;2023-09-19T02:52:52;100314.81;;;16.82;86.96
15646;BME280;7922;43.622;1.476;2023-09-19T02:55:18;100349.41;;;17.00;87.49
15646;BME280;7922;43.622;1.476;2023-09-19T02:57:51;100457.19;;;17.59;87.62
15646;BME280;7922;43.622;1.476;2023-09-19T03:00:19;100290.22;;;16.61;87.74
15646;BME280;7922;43.622;1.476;2023-09-19T03:02:44;100425.44;;;17.39;87.58
15646;BME280;7922;43.622;1.476;2023-09-19T03:05:09;100293.66;;;16.64;87.67
15646;BME280;7922;43.622;1.476;2023-09-19T03:07:35;100323.00;;;16.79;87.90
15646;BME280;7922;43.622;1.476;2023-09-19T03:10:00;100423.72;;;17.38;87.75
15646;BME280;7922;43.622;1.476;2023-09-19T03:12:26;100437.97;;;17.38;88.17
15646;BME280;7922;43.622;1.476;2023-09-19T03:14:51;100292.34;;;16.56;87.54
15646;BME280;7922;43.622;1.476;2023-09-19T03:17:17;100388.19;;;17.07;87.56
15646;BME280;7922;43.622;1.476;2023-09-19T03:19:42;100447.44;;;17.44;88.21
15646;BME280;7922;43.622;1.476;2023-09-19T03:22:07;100424.72;;;17.22;88.21
15646;BME280;7922;43.622;1.476;2023-09-19T03:24:33;100393.56;;;17.07;87.88
15646;BME280;7922;43.622;1.476;2023-09-19T03:26:58;100424.88;;;17.19;88.57
15646;BME280;7922;43.622;1.476;2023-09-19T03:29:24;100466.19;;;17.44;88.68
15646;BME280;7922;43.622;1.476;2023-09-19T03:31:49;100426.41;;;17.23;89.03
15646;BME280;7922;43.622;1.476;2023-09-19T03:34:14;100358.47;;;16.83;88.75
15646;BME280;7922;43.622;1.476;2023-09-19T03:36:39;100462.84;;;17.40;88.87
15646;BME280;7922;43.622;1.476;2023-09-19T03:39:05;100382.19;;;16.89;88.72
15646;BME280;7922;43.622;1.476;2023-09-19T03:41:31;100417.72;;;17.05;89.04
15646;BME280;7922;43.622;1.476;2023-09-19T03:43:57;100331.38;;;16.59;88.77
15646;BME280;7922;43.622;1.476;2023-09-19T03:46:22;100370.03;;;16.83;88.88
15646;BME280;7922;43.622;1.476;2023-09-19T03:48:47;100392.78;;;16.91;89.04
15646;BME280;7922;43.622;1.476;2023-09-19T03:51:13;100298.81;;;16.38;89.21
15646;BME280;7922;43.622;1.476;2023-09-19T03:53:38;100427.28;;;17.09;89.33
15646;BME280;7922;43.622;1.476;2023-09-19T03:56:03;100460.19;;;17.26;89.54
15646;BME280;7922;43.622;1.476;2023-09-19T03:58:28;100335.31;;;16.53;89.14
15646;BME280;7922;43.622;1.476;2023-09-19T04:00:57;100416.97;;;17.03;89.38
15646;BME280;7922;43.622;1.476;2023-09-19T04:03:23;100349.00;;;16.63;89.31
15646;BME280;7922;43.622;1.476;2023-09-19T04:05:49;100307.69;;;16.39;89.70
15646;BME280;7922;43.622;1.476;2023-09-19T04:08:14;100314.88;;;16.38;89.44
15646;BME280;7922;43.622;1.476;2023-09-19T04:10:42;100310.25;;;16.40;89.62
15646;BME280;7922;43.622;1.476;2023-09-19T04:13:07;100435.41;;;17.08;89.83
15646;BME280;7922;43.622;1.476;2023-09-19T04:15:33;100410.66;;;16.90;90.32
15646;BME280;7922;43.622;1.476;2023-09-19T04:17:58;100301.97;;;16.30;89.92
15646;BME280;7922;43.622;1.476;2023-09-19T04:20:23;100341.69;;;16.51;90.47
15646;BME280;7922;43.622;1.476;2023-09-19T04:22:48;100338.28;;;16.49;90.90
15646;BME280;7922;43.622;1.476;2023-09-19T04:25:14;100400.97;;;16.88;90.66
15646;BME280;7922;43.622;1.476;2023-09-19T04:27:39;100419.34;;;16.94;90.63
15646;BME280;7922;43.622;1.476;2023-09-19T04:30:06;100355.66;;;16.56;91.12
15646;BME280;7922;43.622;1.476;2023-09-19T04:32:31;100410.75;;;16.89;91.04
15646;BME280;7922;43.622;1.476;2023-09-19T04:34:56;100403.84;;;16.84;91.35
15646;BME280;7922;43.622;1.476;2023-09-19T04:37:22;100439.31;;;17.02;91.26
15646;BME280;7922;43.622;1.476;2023-09-19T04:39:47;100430.72;;;16.97;91.11
15646;BME280;7922;43.622;1.476;2023-09-19T04:42:13;100402.31;;;16.80;91.65
15646;BME280;7922;43.622;1.476;2023-09-19T04:44:38;100299.28;;;16.16;91.15
15646;BME280;7922;43.622;1.476;2023-09-19T04:47:03;100306.91;;;16.22;91.46
15646;BME280;7922;43.622;1.476;2023-09-19T04:49:29;100352.50;;;16.49;91.05
15646;BME280;7922;43.622;1.476;2023-09-19T04:51:54;100400.03;;;16.74;91.32
15646;BME280;7922;43.622;1.476;2023-09-19T04:54:19;100328.59;;;16.32;91.18
15646;BME280;7922;43.622;1.476;2023-09-19T04:56:44;100312.91;;;16.26;91.63
15646;BME280;7922;43.622;1.476;2023-09-19T04:59:10;100410.28;;;16.82;91.38
15646;BME280;7922;43.622;1.476;2023-09-19T05:01:35;100426.41;;;16.80;92.15
15646;BME280;7922;43.622;1.476;2023-09-19T05:04:00;100430.81;;;16.81;92.04
15646;BME280;7922;43.622;1.476;2023-09-19T05:06:25;100430.16;;;16.78;92.36
15646;BME280;7922;43.622;1.476;2023-09-19T05:08:51;100322.44;;;16.16;92.19
15646;BME280;7922;43.622;1.476;2023-09-19T05:11:19;100435.28;;;16.81;92.79
15646;BME280;7922;43.622;1.476;2023-09-19T05:13:45;100378.38;;;16.49;93.17
15646;BME280;7922;43.622;1.476;2023-09-19T05:16:10;100431.44;;;16.71;93.94
15646;BME280;7922;43.622;1.476;2023-09-19T05:18:36;100409.34;;;16.53;94.17
15646;BME280;7922;43.622;1.476;2023-09-19T05:21:04;100356.34;;;16.15;94.22
15646;BME280;7922;43.622;1.476;2023-09-19T05:23:30;100358.94;;;16.17;94.83
15646;BME280;7922;43.622;1.476;2023-09-19T05:25:58;100397.06;;;16.34;94.58
15646;BME280;7922;43.622;1.476;2023-09-19T05:28:24;100279.00;;;15.68;93.92
15646;BME280;7922;43.622;1.476;2023-09-19T05:30:49;100372.69;;;16.25;93.82
15646;BME280;7922;43.622;1.476;2023-09-19T05:33:14;100346.03;;;16.09;94.01
15646;BME280;7922;43.622;1.476;2023-09-19T05:35:39;100340.94;;;16.04;94.48
15646;BME280;7922;43.622;1.476;2023-09-19T05:38:05;100440.38;;;16.55;94.26
15646;BME280;7922;43.622;1.476;2023-09-19T05:40:30;100360.59;;;16.03;95.00
15646;BME280;7922;43.622;1.476;2023-09-19T05:42:55;100427.78;;;16.27;95.74
15646;BME280;7922;43.622;1.476;2023-09-19T05:45:21;100482.13;;;16.58;96.45
15646;BME280;7922;43.622;1.476;2023-09-19T05:47:46;100427.13;;;16.24;96.54
15646;BME280;7922;43.622;1.476;2023-09-19T05:50:11;100400.41;;;16.08;96.33
15646;BME280;7922;43.622;1.476;2023-09-19T05:52:38;100475.06;;;16.57;96.40
15646;BME280;7922;43.622;1.476;2023-09-19T05:55:04;100397.28;;;16.16;96.12
15646;BME280;7922;43.622;1.476;2023-09-19T05:57:30;100457.66;;;16.50;96.02
15646;BME280;7922;43.622;1.476;2023-09-19T05:59:55;100447.41;;;16.42;96.09
15646;BME280;7922;43.622;1.476;2023-09-19T06:02:20;100482.81;;;16.61;95.60
15646;BME280;7922;43.622;1.476;2023-09-19T06:04:45;100433.38;;;16.39;95.37
15646;BME280;7922;43.622;1.476;2023-09-19T06:07:11;100464.00;;;16.63;94.84
15646;BME280;7922;43.622;1.476;2023-09-19T06:09:36;100490.72;;;16.79;94.88
15646;BME280;7922;43.622;1.476;2023-09-19T06:12:01;100392.66;;;16.33;94.60
15646;BME280;7922;43.622;1.476;2023-09-19T06:14:26;100388.66;;;16.41;94.24
15646;BME280;7922;43.622;1.476;2023-09-19T06:16:52;100471.53;;;16.87;94.11
15646;BME280;7922;43.622;1.476;2023-09-19T06:19:17;100505.41;;;17.16;93.71
15646;BME280;7922;43.622;1.476;2023-09-19T06:21:42;100389.53;;;16.55;93.00
15646;BME280;7922;43.622;1.476;2023-09-19T06:24:07;100471.84;;;17.11;92.45
15646;BME280;7922;43.622;1.476;2023-09-19T06:26:33;100472.22;;;17.19;92.44
15646;BME280;7922;43.622;1.476;2023-09-19T06:28:58;100421.72;;;16.98;91.46
15646;BME280;7922;43.622;1.476;2023-09-19T06:31:23;100499.69;;;17.51;90.86
15646;BME280;7922;43.622;1.476;2023-09-19T06:33:49;100393.94;;;17.01;89.72
15646;BME280;7922;43.622;1.476;2023-09-19T06:36:14;100466.75;;;17.49;89.26
15646;BME280;7922;43.622;1.476;2023-09-19T06:38:39;100512.78;;;17.84;88.01
15646;BME280;7922;43.622;1.476;2023-09-19T06:41:04;100430.59;;;17.56;87.45
15646;BME280;7922;43.622;1.476;2023-09-19T06:43:31;100505.38;;;18.02;86.92
15646;BME280;7922;43.622;1.476;2023-09-19T06:45:56;100422.53;;;17.70;86.38
15646;BME280;7922;43.622;1.476;2023-09-19T06:48:22;100423.75;;;17.79;85.04
15646;BME280;7922;43.622;1.476;2023-09-19T06:50:47;100375.03;;;17.45;85.05
15646;BME280;7922;43.622;1.476;2023-09-19T06:53:12;100495.72;;;18.26;84.15
15646;BME280;7922;43.622;1.476;2023-09-19T06:55:37;100452.28;;;18.07;83.65
15646;BME280;7922;43.622;1.476;2023-09-19T06:58:03;100487.06;;;18.36;82.96
15646;BME280;7922;43.622;1.476;2023-09-19T07:00:28;100411.88;;;18.10;82.09
15646;BME280;7922;43.622;1.476;2023-09-19T07:03:03;100521.59;;;18.67;81.75
15646;BME280;7922;43.622;1.476;2023-09-19T07:05:30;100504.28;;;18.59;81.00
15646;BME280;7922;43.622;1.476;2023-09-19T07:07:55;100497.47;;;18.80;80.90
15646;BME280;7922;43.622;1.476;2023-09-19T07:10:21;100498.25;;;18.82;79.34
15646;BME280;7922;43.622;1.476;2023-09-19T07:12:46;100406.69;;;18.34;78.92
15646;BME280;7922;43.622;1.476;2023-09-19T07:15:12;100486.06;;;18.64;79.42
15646;BME280;7922;43.622;1.476;2023-09-19T07:17:37;100393.16;;;18.36;78.88
15646;BME280;7922;43.622;1.476;2023-09-19T07:20:03;100512.88;;;19.04;78.73
15646;BME280;7922;43.622;1.476;2023-09-19T07:22:28;100456.09;;;18.57;79.26
15646;BME280;7922;43.622;1.476;2023-09-19T07:24:53;100474.28;;;18.79;78.35
15646;BME280;7922;43.622;1.476;2023-09-19T07:27:19;100489.34;;;18.94;78.65
15646;BME280;7922;43.622;1.476;2023-09-19T07:29:44;100463.47;;;18.93;78.28
15646;BME280;7922;43.622;1.476;2023-09-19T07:32:09;100406.53;;;18.63;77.91
15646;BME280;7922;43.622;1.476;2023-09-19T07:34:34;100473.47;;;19.04;78.19
15646;BME280;7922;43.622;1.476;2023-09-19T07:37:00;100446.84;;;18.88;78.41
15646;BME280;7922;43.622;1.476;2023-09-19T07:39:25;100427.25;;;18.73;78.40
15646;BME280;7922;43.622;1.476;2023-09-19T07:41:50;100424.19;;;18.40;80.25
15646;BME280;7922;43.622;1.476;2023-09-19T07:44:15;100480.19;;;18.71;80.97
15646;BME280;7922;43.622;1.476;2023-09-19T07:46:41;100451.38;;;18.61;81.16
15646;BME280;7922;43.622;1.476;2023-09-19T07:49:06;100476.59;;;19.11;79.29
15646;BME280;7922;43.622;1.476;2023-09-19T07:51:31;100493.53;;;18.98;80.17
15646;BME280;7922;43.622;1.476;2023-09-19T07:53:56;100388.03;;;18.45;79.81
15646;BME280;7922;43.622;1.476;2023-09-19T07:56:22;100489.03;;;19.12;79.20
15646;BME280;7922;43.622;1.476;2023-09-19T07:58:47;100508.91;;;19.22;79.05
15646;BME280;7922;43.622;1.476;2023-09-19T08:01:12;100370.84;;;18.48;78.85
15646;BME280;7922;43.622;1.476;2023-09-19T08:03:38;100422.31;;;19.06;78.56
15646;BME280;7922;43.622;1.476;2023-09-19T08:06:03;100479.88;;;19.53;77.72
15646;BME280;7922;43.622;1.476;2023-09-19T08:08:28;100423.28;;;19.05;78.24
15646;BME280;7922;43.622;1.476;2023-09-19T08:10:54;100415.25;;;19.05;78.42
15646;BME280;7922;43.622;1.476;2023-09-19T08:13:20;100435.38;;;19.48;77.15
15646;BME280;7922;43.622;1.476;2023-09-19T08:15:45;100475.16;;;19.69;76.90
15646;BME280;7922;43.622;1.476;2023-09-19T08:18:10;100493.72;;;19.59;77.56
15646;BME280;7922;43.622;1.476;2023-09-19T08:20:36;100531.91;;;19.64;78.36
15646;BME280;7922;43.622;1.476;2023-09-19T08:23:01;100435.44;;;19.60;76.56
15646;BME280;7922;43.622;1.476;2023-09-19T08:25:26;100488.31;;;19.85;76.22
15646;BME280;7922;43.622;1.476;2023-09-19T08:27:51;100517.78;;;20.23;76.48
15646;BME280;7922;43.622;1.476;2023-09-19T08:30:19;100497.66;;;19.92;76.19
15646;BME280;7922;43.622;1.476;2023-09-19T08:32:44;100508.91;;;19.97;77.10
15646;BME280;7922;43.622;1.476;2023-09-19T08:35:10;100525.84;;;20.47;75.66
15646;BME280;7922;43.622;1.476;2023-09-19T08:37:36;100527.53;;;20.61;74.34
15646;BME280;7922;43.622;1.476;2023-09-19T08:40:01;100452.91;;;20.15;74.08
15646;BME280;7922;43.622;1.476;2023-09-19T08:42:27;100477.06;;;20.28;73.52
15646;BME280;7922;43.622;1.476;2023-09-19T08:44:52;100507.03;;;20.71;72.89
15646;BME280;7922;43.622;1.476;2023-09-19T08:47:20;100507.34;;;21.02;72.22
15646;BME280;7922;43.622;1.476;2023-09-19T08:49:58;100539.88;;;21.34;71.21
15646;BME280;7922;43.622;1.476;2023-09-19T08:52:27;100494.50;;;21.16;70.65
15646;BME280;7922;43.622;1.476;2023-09-19T08:54:57;100437.97;;;20.35;72.11
15646;BME280;7922;43.622;1.476;2023-09-19T08:57:23;100499.38;;;21.00;71.82
15646;BME280;7922;43.622;1.476;2023-09-19T08:59:49;100519.69;;;21.51;68.83
15646;BME280;7922;43.622;1.476;2023-09-19T09:02:15;100510.81;;;21.26;69.79
15646;BME280;7922;43.622;1.476;2023-09-19T09:04:41;100469.34;;;21.40;68.72
15646;BME280;7922;43.622;1.476;2023-09-19T09:07:12;100475.16;;;21.90;66.96
15646;BME280;7922;43.622;1.476;2023-09-19T09:09:38;100494.06;;;21.79;66.75
15646;BME280;7922;43.622;1.476;2023-09-19T09:12:05;100425.50;;;21.81;65.46
15646;BME280;7922;43.622;1.476;2023-09-19T09:14:30;100446.00;;;21.84;65.41
15646;BME280;7922;43.622;1.476;2023-09-19T09:16:55;100494.94;;;21.79;66.89
15646;BME280;7922;43.622;1.476;2023-09-19T09:19:20;100427.03;;;21.18;67.33
15646;BME280;7922;43.622;1.476;2023-09-19T09:21:46;100539.63;;;22.27;66.98
15646;BME280;7922;43.622;1.476;2023-09-19T09:24:28;100468.00;;;22.11;65.56
15646;BME280;7922;43.622;1.476;2023-09-19T09:26:53;100452.31;;;22.17;65.93
15646;BME280;7922;43.622;1.476;2023-09-19T09:29:43;100534.09;;;22.61;65.85
15646;BME280;7922;43.622;1.476;2023-09-19T09:32:25;100525.50;;;22.67;65.22
15646;BME280;7922;43.622;1.476;2023-09-19T09:34:53;100497.59;;;22.45;65.17
15646;BME280;7922;43.622;1.476;2023-09-19T09:37:19;100461.47;;;22.25;65.04
15646;BME280;7922;43.622;1.476;2023-09-19T09:42:34;100494.31;;;22.95;61.81
15646;BME280;7922;43.622;1.476;2023-09-19T09:45:19;100474.56;;;22.41;63.55
15646;BME280;7922;43.622;1.476;2023-09-19T09:47:48;100485.22;;;22.96;62.28
15646;BME280;7922;43.622;1.476;2023-09-19T09:50:14;100509.19;;;23.62;60.35
15646;BME280;7922;43.622;1.476;2023-09-19T09:52:45;100430.56;;;22.50;62.29
15646;BME280;7922;43.622;1.476;2023-09-19T09:55:11;100392.22;;;21.60;64.36
15646;BME280;7922;43.622;1.476;2023-09-19T09:57:36;100517.19;;;22.26;65.29
15646;BME280;7922;43.622;1.476;2023-09-19T10:00:03;100489.84;;;22.20;65.08
15646;BME280;7922;43.622;1.476;2023-09-19T10:02:29;100495.34;;;22.18;64.59
15646;BME280;7922;43.622;1.476;2023-09-19T10:04:58;100508.16;;;21.94;65.84
15646;BME280;7922;43.622;1.476;2023-09-19T10:07:26;100521.63;;;21.71;66.46
15646;BME280;7922;43.622;1.476;2023-09-19T10:09:51;100399.97;;;21.08;66.81
15646;BME280;7922;43.622;1.476;2023-09-19T10:12:18;100400.47;;;21.13;66.48
15646;BME280;7922;43.622;1.476;2023-09-19T10:14:45;100491.81;;;21.28;66.72
15646;BME280;7922;43.622;1.476;2023-09-19T10:17:12;100456.97;;;22.03;64.25
15646;BME280;7922;43.622;1.476;2023-09-19T10:19:46;100436.31;;;21.81;63.29
15646;BME280;7922;43.622;1.476;2023-09-19T10:22:17;100496.81;;;22.11;63.69
15646;BME280;7922;43.622;1.476;2023-09-19T10:24:45;100504.44;;;22.17;62.23
15646;BME280;7922;43.622;1.476;2023-09-19T10:27:11;100453.84;;;21.87;63.29
15646;BME280;7922;43.622;1.476;2023-09-19T10:29:39;100428.13;;;21.27;63.14
15646;BME280;7922;43.622;1.476;2023-09-19T10:32:05;100503.63;;;21.72;64.20
15646;BME280;7922;43.622;1.476;2023-09-19T10:34:34;100501.28;;;21.67;63.76
15646;BME280;7922;43.622;1.476;2023-09-19T10:37:02;100452.59;;;21.91;63.01
15646;BME280;7922;43.622;1.476;2023-09-19T10:39:30;100469.16;;;22.41;59.87
15646;BME280;7922;43.622;1.476;2023-09-19T10:42:01;100454.09;;;22.59;59.67
15646;BME280;7922;43.622;1.476;2023-09-19T10:44:28;100457.66;;;22.81;59.33
15646;BME280;7922;43.622;1.476;2023-09-19T10:46:57;100366.91;;;22.99;58.20
15646;BME280;7922;43.622;1.476;2023-09-19T10:49:23;100394.84;;;23.50;55.92
15646;BME280;7922;43.622;1.476;2023-09-19T10:51:51;100398.47;;;23.29;56.00
15646;BME280;7922;43.622;1.476;2023-09-19T10:54:19;100467.59;;;24.03;54.34
15646;BME280;7922;43.622;1.476;2023-09-19T10:56:49;100428.56;;;23.96;52.71
15646;BME280;7922;43.622;1.476;2023-09-19T10:59:16;100397.09;;;24.34;53.30
15646;BME280;7922;43.622;1.476;2023-09-19T11:01:46;100365.59;;;24.03;51.52
15646;BME280;7922;43.622;1.476;2023-09-19T11:07:01;100390.66;;;24.73;50.18
15646;BME280;7922;43.622;1.476;2023-09-19T11:14:53;100370.47;;;22.79;55.74
15646;BME280;7922;43.622;1.476;2023-09-19T11:30:31;100423.25;;;22.83;56.19
15646;BME280;7922;43.622;1.476;2023-09-19T11:33:29;100431.88;;;23.19;56.76
15646;BME280;7922;43.622;1.476;2023-09-19T11:36:08;100422.41;;;23.03;55.96
15646;BME280;7922;43.622;1.476;2023-09-19T11:43:45;100392.47;;;23.26;55.61
15646;BME280;7922;43.622;1.476;2023-09-19T11:46:10;100389.09;;;23.34;53.71
15646;BME280;7922;43.622;1.476;2023-09-19T11:48:35;100375.72;;;23.32;52.29
15646;BME280;7922;43.622;1.476;2023-09-19T11:51:12;100387.44;;;23.42;51.27
15646;BME280;7922;43.622;1.476;2023-09-19T11:53:38;100390.50;;;23.68;51.01
15646;BME280;7922;43.622;1.476;2023-09-19T11:56:06;100400.34;;;23.79;50.33
15646;BME280;7922;43.622;1.476;2023-09-19T11:58:31;100384.25;;;23.68;52.07
15646;BME280;7922;43.622;1.476;2023-09-19T12:00:58;100322.53;;;23.02;54.44
15646;BME280;7922;43.622;1.476;2023-09-19T12:03:29;100405.03;;;23.37;55.14
15646;BME280;7922;43.622;1.476;2023-09-19T12:05:54;100387.84;;;23.47;54.40
15646;BME280;7922;43.622;1.476;2023-09-19T12:08:19;100367.84;;;23.19;54.50
15646;BME280;7922;43.622;1.476;2023-09-19T12:10:47;100320.84;;;22.70;55.04
15646;BME280;7922;43.622;1.476;2023-09-19T12:13:16;100366.41;;;23.15;54.73
15646;BME280;7922;43.622;1.476;2023-09-19T12:15:41;100354.47;;;23.27;55.08
15646;BME280;7922;43.622;1.476;2023-09-19T12:18:07;100270.81;;;23.06;53.94
15646;BME280;7922;43.622;1.476;2023-09-19T12:20:44;100305.81;;;23.18;52.36
15646;BME280;7922;43.622;1.476;2023-09-19T12:23:13;100293.44;;;23.15;52.54
15646;BME280;7922;43.622;1.476;2023-09-19T12:25:45;100291.34;;;22.88;52.26
15646;BME280;7922;43.622;1.476;2023-09-19T12:28:11;100368.88;;;23.78;52.05
15646;BME280;7922;43.622;1.476;2023-09-19T12:30:37;100352.50;;;23.99;51.07
15646;BME280;7922;43.622;1.476;2023-09-19T12:33:02;100296.13;;;23.75;51.32
15646;BME280;7922;43.622;1.476;2023-09-19T12:35:28;100348.66;;;24.01;50.70
15646;BME280;7922;43.622;1.476;2023-09-19T12:37:54;100280.69;;;23.66;50.13
15646;BME280;7922;43.622;1.476;2023-09-19T12:40:21;100283.28;;;23.58;49.65
15646;BME280;7922;43.622;1.476;2023-09-19T12:42:46;100294.09;;;23.67;49.11
15646;BME280;7922;43.622;1.476;2023-09-19T12:45:13;100325.56;;;23.78;50.21
15646;BME280;7922;43.622;1.476;2023-09-19T12:47:39;100316.19;;;23.92;49.75
15646;BME280;7922;43.622;1.476;2023-09-19T12:52:51;100343.09;;;24.13;48.64
15646;BME280;7922;43.622;1.476;2023-09-19T12:55:20;100330.41;;;24.13;48.80
15646;BME280;7922;43.622;1.476;2023-09-19T12:58:08;100305.38;;;24.01;49.01
15646;BME280;7922;43.622;1.476;2023-09-19T13:00:37;100338.66;;;24.31;48.83
15646;BME280;7922;43.622;1.476;2023-09-19T13:03:18;100331.41;;;24.41;48.24
15646;BME280;7922;43.622;1.476;2023-09-19T13:05:50;100255.94;;;23.99;47.25
15646;BME280;7922;43.622;1.476;2023-09-19T13:08:21;100305.88;;;24.34;47.24
15646;BME280;7922;43.622;1.476;2023-09-19T13:11:14;100317.28;;;24.28;47.03
15646;BME280;7922;43.622;1.476;2023-09-19T13:14:15;100312.03;;;24.17;46.17
15646;BME280;7922;43.622;1.476;2023-09-19T13:17:03;100196.59;;;23.69;45.75
15646;BME280;7922;43.622;1.476;2023-09-19T13:19:43;100292.06;;;24.18;46.43
15646;BME280;7922;43.622;1.476;2023-09-19T13:25:02;100200.72;;;23.73;45.83
15646;BME280;7922;43.622;1.476;2023-09-19T13:27:27;100222.19;;;23.65;45.02
15646;BME280;7922;43.622;1.476;2023-09-19T13:29:53;100285.69;;;24.19;45.38
15646;BME280;7922;43.622;1.476;2023-09-19T13:32:18;100215.38;;;23.90;45.40
15646;BME280;7922;43.622;1.476;2023-09-19T13:34:43;100185.06;;;23.76;45.24
15646;BME280;7922;43.622;1.476;2023-09-19T13:37:08;100274.53;;;24.22;43.86
15646;BME280;7922;43.622;1.476;2023-09-19T13:39:34;100230.31;;;23.84;44.04
15646;BME280;7922;43.622;1.476;2023-09-19T13:41:59;100184.31;;;23.74;44.78
15646;BME280;7922;43.622;1.476;2023-09-19T13:44:25;100235.84;;;24.12;44.74
15646;BME280;7922;43.622;1.476;2023-09-19T13:46:51;100250.44;;;24.29;44.02